Search for airport 
image banner adimage banner adimage banner ad
image banner ad

CL48 - Palomar Health Downtown Campus

Located in Escondido, United States

ICAO - CL48, IATA -

Data provided by Airmate  

General information

Coordinates: N33°7'28" W117°4'32"
Elevation is 715 feet MSL.
 
View others Airports in California

Operational data

Special qualification required
Current time UTC:
Current local time:
Weather at : KRNM - Ramona ( 18 km )
METAR: KRNM 270553Z AUTO 00000KT 1 1/4SM BR OVC002 18/18 A3000 RMK AO2 SLP144 T01830183 10228 20178 52007
View NOTAMs / SUP AIP / TFR affecting this airport [VIEW]
Communications frequencies: [VIEW]

Runways:

Airport contact information

Address: Escondido United States

Satellite view of CL48